sensor_id;sensor_type;location;lat;lon;timestamp;P1;durP1;ratioP1;P2;durP2;ratioP2
11839;SDS011;5979;50.800;4.904;2024-03-25T00:00:11;4.43;;;4.03;;
11839;SDS011;5979;50.800;4.904;2024-03-25T00:02:38;6.88;;;4.45;;
11839;SDS011;5979;50.800;4.904;2024-03-25T00:05:05;4.38;;;3.60;;
11839;SDS011;5979;50.800;4.904;2024-03-25T00:07:34;3.65;;;3.30;;
11839;SDS011;5979;50.800;4.904;2024-03-25T00:10:02;5.72;;;3.75;;
11839;SDS011;5979;50.800;4.904;2024-03-25T00:12:29;7.78;;;4.70;;
11839;SDS011;5979;50.800;4.904;2024-03-25T00:14:54;5.68;;;3.70;;
11839;SDS011;5979;50.800;4.904;2024-03-25T00:17:20;7.15;;;3.53;;
11839;SDS011;5979;50.800;4.904;2024-03-25T00:19:46;7.63;;;3.58;;
11839;SDS011;5979;50.800;4.904;2024-03-25T00:22:16;4.00;;;3.45;;
11839;SDS011;5979;50.800;4.904;2024-03-25T00:24:42;4.10;;;3.60;;
11839;SDS011;5979;50.800;4.904;2024-03-25T00:27:08;3.50;;;3.20;;
11839;SDS011;5979;50.800;4.904;2024-03-25T00:29:33;4.95;;;3.28;;
11839;SDS011;5979;50.800;4.904;2024-03-25T00:31:59;3.13;;;2.88;;
11839;SDS011;5979;50.800;4.904;2024-03-25T00:34:25;4.20;;;3.20;;
11839;SDS011;5979;50.800;4.904;2024-03-25T00:36:50;3.35;;;2.92;;
11839;SDS011;5979;50.800;4.904;2024-03-25T00:39:16;7.32;;;3.53;;
11839;SDS011;5979;50.800;4.904;2024-03-25T00:41:42;5.13;;;3.20;;
11839;SDS011;5979;50.800;4.904;2024-03-25T00:44:07;5.03;;;2.95;;
11839;SDS011;5979;50.800;4.904;2024-03-25T00:46:33;4.55;;;2.97;;
11839;SDS011;5979;50.800;4.904;2024-03-25T00:48:59;3.08;;;2.85;;
11839;SDS011;5979;50.800;4.904;2024-03-25T00:51:24;3.63;;;3.03;;
11839;SDS011;5979;50.800;4.904;2024-03-25T00:53:50;3.97;;;3.33;;
11839;SDS011;5979;50.800;4.904;2024-03-25T00:56:15;3.50;;;3.20;;
11839;SDS011;5979;50.800;4.904;2024-03-25T00:58:41;3.83;;;3.53;;
11839;SDS011;5979;50.800;4.904;2024-03-25T01:01:07;6.32;;;3.90;;
11839;SDS011;5979;50.800;4.904;2024-03-25T01:03:32;3.83;;;3.53;;
11839;SDS011;5979;50.800;4.904;2024-03-25T01:05:59;4.40;;;3.58;;
11839;SDS011;5979;50.800;4.904;2024-03-25T01:08:24;3.95;;;3.58;;
11839;SDS011;5979;50.800;4.904;2024-03-25T01:10:50;3.92;;;3.63;;
11839;SDS011;5979;50.800;4.904;2024-03-25T01:13:16;4.57;;;4.00;;
11839;SDS011;5979;50.800;4.904;2024-03-25T01:15:41;3.72;;;3.28;;
11839;SDS011;5979;50.800;4.904;2024-03-25T01:18:07;4.05;;;3.45;;
11839;SDS011;5979;50.800;4.904;2024-03-25T01:20:33;5.70;;;3.72;;
11839;SDS011;5979;50.800;4.904;2024-03-25T01:22:59;3.70;;;3.42;;
11839;SDS011;5979;50.800;4.904;2024-03-25T01:25:24;4.15;;;3.17;;
11839;SDS011;5979;50.800;4.904;2024-03-25T01:27:50;3.78;;;3.17;;
11839;SDS011;5979;50.800;4.904;2024-03-25T01:30:16;3.70;;;3.22;;
11839;SDS011;5979;50.800;4.904;2024-03-25T01:32:43;3.20;;;2.95;;
11839;SDS011;5979;50.800;4.904;2024-03-25T01:35:11;5.13;;;3.27;;
11839;SDS011;5979;50.800;4.904;2024-03-25T01:37:37;3.17;;;2.85;;
11839;SDS011;5979;50.800;4.904;2024-03-25T01:40:03;3.30;;;3.05;;
11839;SDS011;5979;50.800;4.904;2024-03-25T01:42:29;4.10;;;3.15;;
11839;SDS011;5979;50.800;4.904;2024-03-25T01:44:55;3.53;;;3.10;;
11839;SDS011;5979;50.800;4.904;2024-03-25T01:47:21;5.63;;;3.40;;
11839;SDS011;5979;50.800;4.904;2024-03-25T01:49:47;3.30;;;3.00;;
11839;SDS011;5979;50.800;4.904;2024-03-25T01:52:14;3.53;;;3.00;;
11839;SDS011;5979;50.800;4.904;2024-03-25T01:54:40;3.42;;;3.10;;
11839;SDS011;5979;50.800;4.904;2024-03-25T01:57:06;3.72;;;3.22;;
11839;SDS011;5979;50.800;4.904;2024-03-25T01:59:32;4.35;;;3.13;;
11839;SDS011;5979;50.800;4.904;2024-03-25T02:01:58;4.43;;;3.20;;
11839;SDS011;5979;50.800;4.904;2024-03-25T02:04:24;3.15;;;2.88;;
11839;SDS011;5979;50.800;4.904;2024-03-25T02:06:50;3.85;;;3.10;;
11839;SDS011;5979;50.800;4.904;2024-03-25T02:09:16;3.10;;;2.80;;
11839;SDS011;5979;50.800;4.904;2024-03-25T02:11:43;3.92;;;3.30;;
11839;SDS011;5979;50.800;4.904;2024-03-25T02:14:09;3.45;;;3.05;;
11839;SDS011;5979;50.800;4.904;2024-03-25T02:16:35;4.97;;;3.40;;
11839;SDS011;5979;50.800;4.904;2024-03-25T02:19:00;4.67;;;3.00;;
11839;SDS011;5979;50.800;4.904;2024-03-25T02:21:26;4.97;;;3.83;;
11839;SDS011;5979;50.800;4.904;2024-03-25T02:23:53;3.90;;;3.60;;
11839;SDS011;5979;50.800;4.904;2024-03-25T02:26:20;3.60;;;3.40;;
11839;SDS011;5979;50.800;4.904;2024-03-25T02:28:48;4.07;;;3.33;;
11839;SDS011;5979;50.800;4.904;2024-03-25T02:31:14;5.15;;;3.67;;
11839;SDS011;5979;50.800;4.904;2024-03-25T02:33:39;7.47;;;4.35;;
11839;SDS011;5979;50.800;4.904;2024-03-25T02:36:07;5.65;;;4.13;;
11839;SDS011;5979;50.800;4.904;2024-03-25T02:38:33;8.40;;;4.43;;
11839;SDS011;5979;50.800;4.904;2024-03-25T02:40:59;7.60;;;4.90;;
11839;SDS011;5979;50.800;4.904;2024-03-25T02:43:25;5.60;;;4.20;;
11839;SDS011;5979;50.800;4.904;2024-03-25T02:45:51;4.80;;;4.37;;
11839;SDS011;5979;50.800;4.904;2024-03-25T02:48:16;6.43;;;5.13;;
11839;SDS011;5979;50.800;4.904;2024-03-25T02:50:42;7.47;;;4.95;;
11839;SDS011;5979;50.800;4.904;2024-03-25T02:53:08;7.17;;;5.00;;
11839;SDS011;5979;50.800;4.904;2024-03-25T02:55:33;7.72;;;6.10;;
11839;SDS011;5979;50.800;4.904;2024-03-25T02:57:59;10.43;;;5.78;;
11839;SDS011;5979;50.800;4.904;2024-03-25T03:00:24;7.47;;;5.18;;
11839;SDS011;5979;50.800;4.904;2024-03-25T03:02:50;6.65;;;5.55;;
11839;SDS011;5979;50.800;4.904;2024-03-25T03:05:16;10.40;;;5.63;;
11839;SDS011;5979;50.800;4.904;2024-03-25T03:07:41;7.40;;;5.90;;
11839;SDS011;5979;50.800;4.904;2024-03-25T03:10:07;8.30;;;5.85;;
11839;SDS011;5979;50.800;4.904;2024-03-25T03:12:33;11.85;;;6.20;;
11839;SDS011;5979;50.800;4.904;2024-03-25T03:14:58;13.65;;;6.13;;
11839;SDS011;5979;50.800;4.904;2024-03-25T03:17:24;10.30;;;6.88;;
11839;SDS011;5979;50.800;4.904;2024-03-25T03:19:50;9.77;;;6.15;;
11839;SDS011;5979;50.800;4.904;2024-03-25T03:22:15;9.70;;;6.80;;
11839;SDS011;5979;50.800;4.904;2024-03-25T03:24:41;16.00;;;6.88;;
11839;SDS011;5979;50.800;4.904;2024-03-25T03:27:06;11.20;;;6.47;;
11839;SDS011;5979;50.800;4.904;2024-03-25T03:29:32;14.05;;;6.78;;
11839;SDS011;5979;50.800;4.904;2024-03-25T03:31:58;10.57;;;6.72;;
11839;SDS011;5979;50.800;4.904;2024-03-25T03:34:24;8.10;;;6.38;;
11839;SDS011;5979;50.800;4.904;2024-03-25T03:36:49;12.25;;;6.90;;
11839;SDS011;5979;50.800;4.904;2024-03-25T03:39:15;8.43;;;7.03;;
11839;SDS011;5979;50.800;4.904;2024-03-25T03:41:41;11.05;;;7.15;;
11839;SDS011;5979;50.800;4.904;2024-03-25T03:44:07;9.18;;;6.22;;
11839;SDS011;5979;50.800;4.904;2024-03-25T03:46:34;11.18;;;6.63;;
11839;SDS011;5979;50.800;4.904;2024-03-25T03:49:00;10.68;;;6.38;;
11839;SDS011;5979;50.800;4.904;2024-03-25T03:51:25;10.63;;;6.70;;
11839;SDS011;5979;50.800;4.904;2024-03-25T03:53:51;8.07;;;6.57;;
11839;SDS011;5979;50.800;4.904;2024-03-25T03:56:17;9.18;;;7.07;;
11839;SDS011;5979;50.800;4.904;2024-03-25T03:58:42;8.27;;;6.20;;
11839;SDS011;5979;50.800;4.904;2024-03-25T04:01:15;17.30;;;8.52;;
11839;SDS011;5979;50.800;4.904;2024-03-25T04:03:41;18.05;;;8.07;;
11839;SDS011;5979;50.800;4.904;2024-03-25T04:06:07;15.77;;;7.75;;
11839;SDS011;5979;50.800;4.904;2024-03-25T04:08:35;14.33;;;8.20;;
11839;SDS011;5979;50.800;4.904;2024-03-25T04:11:01;13.45;;;8.07;;
11839;SDS011;5979;50.800;4.904;2024-03-25T04:13:27;16.83;;;8.83;;
11839;SDS011;5979;50.800;4.904;2024-03-25T04:15:52;12.50;;;8.02;;
11839;SDS011;5979;50.800;4.904;2024-03-25T04:18:18;14.27;;;8.45;;
11839;SDS011;5979;50.800;4.904;2024-03-25T04:20:44;14.70;;;8.20;;
11839;SDS011;5979;50.800;4.904;2024-03-25T04:23:09;15.20;;;8.70;;
11839;SDS011;5979;50.800;4.904;2024-03-25T04:25:35;18.60;;;8.43;;
11839;SDS011;5979;50.800;4.904;2024-03-25T04:28:05;15.82;;;8.35;;
11839;SDS011;5979;50.800;4.904;2024-03-25T04:30:31;15.77;;;8.30;;
11839;SDS011;5979;50.800;4.904;2024-03-25T04:32:57;16.10;;;9.18;;
11839;SDS011;5979;50.800;4.904;2024-03-25T04:35:23;17.75;;;10.48;;
11839;SDS011;5979;50.800;4.904;2024-03-25T04:37:48;16.30;;;8.50;;
11839;SDS011;5979;50.800;4.904;2024-03-25T04:40:14;12.80;;;8.75;;
11839;SDS011;5979;50.800;4.904;2024-03-25T04:42:43;15.23;;;8.93;;
11839;SDS011;5979;50.800;4.904;2024-03-25T04:45:09;13.07;;;8.23;;
11839;SDS011;5979;50.800;4.904;2024-03-25T04:47:35;14.70;;;8.40;;
11839;SDS011;5979;50.800;4.904;2024-03-25T04:50:01;18.10;;;9.23;;
11839;SDS011;5979;50.800;4.904;2024-03-25T04:52:27;14.95;;;8.80;;
11839;SDS011;5979;50.800;4.904;2024-03-25T04:54:53;15.43;;;8.00;;
11839;SDS011;5979;50.800;4.904;2024-03-25T04:57:19;11.13;;;7.43;;
11839;SDS011;5979;50.800;4.904;2024-03-25T04:59:45;14.02;;;7.35;;
11839;SDS011;5979;50.800;4.904;2024-03-25T05:02:10;13.93;;;8.13;;
11839;SDS011;5979;50.800;4.904;2024-03-25T05:04:36;15.05;;;8.73;;
11839;SDS011;5979;50.800;4.904;2024-03-25T05:07:02;10.23;;;7.65;;
11839;SDS011;5979;50.800;4.904;2024-03-25T05:09:28;17.40;;;9.00;;
11839;SDS011;5979;50.800;4.904;2024-03-25T05:11:53;14.20;;;8.15;;
11839;SDS011;5979;50.800;4.904;2024-03-25T05:14:19;17.48;;;8.95;;
11839;SDS011;5979;50.800;4.904;2024-03-25T05:16:44;18.85;;;9.00;;
11839;SDS011;5979;50.800;4.904;2024-03-25T05:19:10;15.48;;;8.80;;
11839;SDS011;5979;50.800;4.904;2024-03-25T05:21:36;14.10;;;8.30;;
11839;SDS011;5979;50.800;4.904;2024-03-25T05:24:01;15.57;;;9.00;;
11839;SDS011;5979;50.800;4.904;2024-03-25T05:26:27;15.85;;;8.02;;
11839;SDS011;5979;50.800;4.904;2024-03-25T05:28:53;15.77;;;8.50;;
11839;SDS011;5979;50.800;4.904;2024-03-25T05:31:19;15.23;;;7.90;;
11839;SDS011;5979;50.800;4.904;2024-03-25T05:33:45;14.90;;;7.85;;
11839;SDS011;5979;50.800;4.904;2024-03-25T05:36:10;12.55;;;7.78;;
11839;SDS011;5979;50.800;4.904;2024-03-25T05:38:36;14.32;;;8.07;;
11839;SDS011;5979;50.800;4.904;2024-03-25T05:41:03;12.00;;;7.97;;
11839;SDS011;5979;50.800;4.904;2024-03-25T05:43:29;13.98;;;7.95;;
11839;SDS011;5979;50.800;4.904;2024-03-25T05:45:55;10.45;;;7.20;;
11839;SDS011;5979;50.800;4.904;2024-03-25T05:48:22;14.48;;;7.70;;
11839;SDS011;5979;50.800;4.904;2024-03-25T05:51:04;11.57;;;7.77;;
11839;SDS011;5979;50.800;4.904;2024-03-25T05:53:30;15.23;;;8.02;;
11839;SDS011;5979;50.800;4.904;2024-03-25T05:55:56;12.67;;;8.13;;
11839;SDS011;5979;50.800;4.904;2024-03-25T05:58:24;15.73;;;8.77;;
11839;SDS011;5979;50.800;4.904;2024-03-25T06:00:50;13.77;;;8.27;;
11839;SDS011;5979;50.800;4.904;2024-03-25T06:03:18;12.52;;;8.05;;
11839;SDS011;5979;50.800;4.904;2024-03-25T06:05:44;14.27;;;7.75;;
11839;SDS011;5979;50.800;4.904;2024-03-25T06:08:10;16.27;;;9.13;;
11839;SDS011;5979;50.800;4.904;2024-03-25T06:10:49;13.80;;;8.57;;
11839;SDS011;5979;50.800;4.904;2024-03-25T06:13:19;13.48;;;8.60;;
11839;SDS011;5979;50.800;4.904;2024-03-25T06:15:45;15.18;;;8.45;;
11839;SDS011;5979;50.800;4.904;2024-03-25T06:18:11;13.25;;;8.70;;
11839;SDS011;5979;50.800;4.904;2024-03-25T06:20:37;18.92;;;8.57;;
11839;SDS011;5979;50.800;4.904;2024-03-25T06:23:03;14.10;;;8.93;;
11839;SDS011;5979;50.800;4.904;2024-03-25T06:25:29;15.73;;;8.50;;
11839;SDS011;5979;50.800;4.904;2024-03-25T06:27:55;14.27;;;9.48;;
11839;SDS011;5979;50.800;4.904;2024-03-25T06:30:21;14.93;;;8.65;;
11839;SDS011;5979;50.800;4.904;2024-03-25T06:33:06;13.55;;;8.20;;
11839;SDS011;5979;50.800;4.904;2024-03-25T06:35:50;10.77;;;7.80;;
11839;SDS011;5979;50.800;4.904;2024-03-25T06:38:17;13.65;;;9.02;;
11839;SDS011;5979;50.800;4.904;2024-03-25T06:40:42;14.45;;;8.60;;
11839;SDS011;5979;50.800;4.904;2024-03-25T06:43:10;13.75;;;9.00;;
11839;SDS011;5979;50.800;4.904;2024-03-25T06:45:35;13.18;;;8.25;;
11839;SDS011;5979;50.800;4.904;2024-03-25T06:48:01;14.98;;;8.95;;
11839;SDS011;5979;50.800;4.904;2024-03-25T06:50:26;15.63;;;8.43;;
11839;SDS011;5979;50.800;4.904;2024-03-25T06:52:52;18.25;;;9.65;;
11839;SDS011;5979;50.800;4.904;2024-03-25T06:55:18;14.23;;;8.70;;
11839;SDS011;5979;50.800;4.904;2024-03-25T06:57:47;14.27;;;8.57;;
11839;SDS011;5979;50.800;4.904;2024-03-25T07:00:13;15.52;;;9.07;;
11839;SDS011;5979;50.800;4.904;2024-03-25T07:02:39;16.33;;;9.27;;
11839;SDS011;5979;50.800;4.904;2024-03-25T07:05:06;13.82;;;8.65;;
11839;SDS011;5979;50.800;4.904;2024-03-25T07:07:32;15.40;;;9.68;;
11839;SDS011;5979;50.800;4.904;2024-03-25T07:09:59;13.93;;;8.80;;
11839;SDS011;5979;50.800;4.904;2024-03-25T07:12:24;15.95;;;7.55;;
11839;SDS011;5979;50.800;4.904;2024-03-25T07:14:50;13.00;;;7.97;;
11839;SDS011;5979;50.800;4.904;2024-03-25T07:17:16;13.18;;;8.48;;
11839;SDS011;5979;50.800;4.904;2024-03-25T07:19:41;11.95;;;7.88;;
11839;SDS011;5979;50.800;4.904;2024-03-25T07:22:08;10.43;;;7.43;;
11839;SDS011;5979;50.800;4.904;2024-03-25T07:24:34;11.75;;;7.75;;
11839;SDS011;5979;50.800;4.904;2024-03-25T07:26:59;11.13;;;7.28;;
11839;SDS011;5979;50.800;4.904;2024-03-25T07:29:25;12.35;;;7.63;;
11839;SDS011;5979;50.800;4.904;2024-03-25T07:31:51;10.57;;;6.65;;
11839;SDS011;5979;50.800;4.904;2024-03-25T07:34:16;9.63;;;7.47;;
11839;SDS011;5979;50.800;4.904;2024-03-25T07:36:42;12.68;;;7.40;;
11839;SDS011;5979;50.800;4.904;2024-03-25T07:39:07;11.68;;;7.85;;
11839;SDS011;5979;50.800;4.904;2024-03-25T07:41:36;13.90;;;7.90;;
11839;SDS011;5979;50.800;4.904;2024-03-25T07:44:02;11.18;;;7.47;;
11839;SDS011;5979;50.800;4.904;2024-03-25T07:46:27;12.95;;;6.97;;
11839;SDS011;5979;50.800;4.904;2024-03-25T07:48:53;8.70;;;5.90;;
11839;SDS011;5979;50.800;4.904;2024-03-25T07:51:19;9.02;;;6.07;;
11839;SDS011;5979;50.800;4.904;2024-03-25T07:53:44;7.85;;;6.53;;
11839;SDS011;5979;50.800;4.904;2024-03-25T07:56:10;15.00;;;6.13;;
11839;SDS011;5979;50.800;4.904;2024-03-25T07:58:36;13.05;;;6.40;;
11839;SDS011;5979;50.800;4.904;2024-03-25T08:01:01;12.50;;;6.57;;
11839;SDS011;5979;50.800;4.904;2024-03-25T08:03:27;10.65;;;6.32;;
11839;SDS011;5979;50.800;4.904;2024-03-25T08:05:52;15.65;;;6.25;;
11839;SDS011;5979;50.800;4.904;2024-03-25T08:08:18;9.30;;;6.13;;
11839;SDS011;5979;50.800;4.904;2024-03-25T08:10:45;12.60;;;6.03;;
11839;SDS011;5979;50.800;4.904;2024-03-25T08:13:11;12.43;;;6.18;;
11839;SDS011;5979;50.800;4.904;2024-03-25T08:15:37;11.68;;;5.55;;
11839;SDS011;5979;50.800;4.904;2024-03-25T08:18:02;12.27;;;5.95;;
11839;SDS011;5979;50.800;4.904;2024-03-25T08:20:29;10.30;;;6.30;;
11839;SDS011;5979;50.800;4.904;2024-03-25T08:22:55;8.95;;;6.30;;
11839;SDS011;5979;50.800;4.904;2024-03-25T08:25:21;8.93;;;5.93;;
11839;SDS011;5979;50.800;4.904;2024-03-25T08:27:46;10.85;;;5.93;;
11839;SDS011;5979;50.800;4.904;2024-03-25T08:30:12;7.18;;;5.18;;
11839;SDS011;5979;50.800;4.904;2024-03-25T08:32:38;6.53;;;5.78;;
11839;SDS011;5979;50.800;4.904;2024-03-25T08:35:03;8.85;;;5.25;;
11839;SDS011;5979;50.800;4.904;2024-03-25T08:37:29;9.93;;;5.35;;
11839;SDS011;5979;50.800;4.904;2024-03-25T08:39:54;7.82;;;5.30;;
11839;SDS011;5979;50.800;4.904;2024-03-25T08:42:20;6.00;;;4.82;;
11839;SDS011;5979;50.800;4.904;2024-03-25T08:44:46;13.00;;;5.68;;
11839;SDS011;5979;50.800;4.904;2024-03-25T08:47:12;7.28;;;5.32;;
11839;SDS011;5979;50.800;4.904;2024-03-25T08:49:38;7.55;;;5.20;;
11839;SDS011;5979;50.800;4.904;2024-03-25T08:52:03;8.82;;;5.68;;
11839;SDS011;5979;50.800;4.904;2024-03-25T08:54:29;10.85;;;5.38;;
11839;SDS011;5979;50.800;4.904;2024-03-25T08:56:55;12.30;;;5.38;;
11839;SDS011;5979;50.800;4.904;2024-03-25T08:59:20;8.10;;;4.85;;
11839;SDS011;5979;50.800;4.904;2024-03-25T09:01:46;7.50;;;5.30;;
11839;SDS011;5979;50.800;4.904;2024-03-25T09:04:12;8.90;;;5.82;;
11839;SDS011;5979;50.800;4.904;2024-03-25T09:06:38;9.88;;;5.50;;
11839;SDS011;5979;50.800;4.904;2024-03-25T09:09:03;9.57;;;5.80;;
11839;SDS011;5979;50.800;4.904;2024-03-25T09:11:47;7.60;;;4.95;;
11839;SDS011;5979;50.800;4.904;2024-03-25T09:14:13;7.68;;;5.45;;
11839;SDS011;5979;50.800;4.904;2024-03-25T09:16:38;5.63;;;4.88;;
11839;SDS011;5979;50.800;4.904;2024-03-25T09:19:05;8.95;;;4.97;;
11839;SDS011;5979;50.800;4.904;2024-03-25T09:21:30;7.72;;;5.25;;
11839;SDS011;5979;50.800;4.904;2024-03-25T09:23:56;10.60;;;4.95;;
11839;SDS011;5979;50.800;4.904;2024-03-25T09:26:23;8.40;;;5.10;;
11839;SDS011;5979;50.800;4.904;2024-03-25T09:28:49;8.10;;;5.50;;
11839;SDS011;5979;50.800;4.904;2024-03-25T09:31:14;8.52;;;5.25;;
11839;SDS011;5979;50.800;4.904;2024-03-25T09:33:40;5.75;;;4.82;;
11839;SDS011;5979;50.800;4.904;2024-03-25T09:36:06;9.57;;;5.63;;
11839;SDS011;5979;50.800;4.904;2024-03-25T09:38:31;4.72;;;4.30;;
11839;SDS011;5979;50.800;4.904;2024-03-25T09:40:57;6.28;;;4.55;;
11839;SDS011;5979;50.800;4.904;2024-03-25T09:43:23;7.22;;;4.60;;
11839;SDS011;5979;50.800;4.904;2024-03-25T09:45:57;6.57;;;4.68;;
11839;SDS011;5979;50.800;4.904;2024-03-25T09:48:24;7.15;;;4.78;;
11839;SDS011;5979;50.800;4.904;2024-03-25T09:50:50;6.07;;;4.57;;
11839;SDS011;5979;50.800;4.904;2024-03-25T09:53:18;7.32;;;4.53;;
11839;SDS011;5979;50.800;4.904;2024-03-25T09:55:46;7.65;;;4.03;;
11839;SDS011;5979;50.800;4.904;2024-03-25T09:58:11;7.07;;;4.85;;
11839;SDS011;5979;50.800;4.904;2024-03-25T10:00:39;6.72;;;4.35;;
11839;SDS011;5979;50.800;4.904;2024-03-25T10:03:05;6.68;;;4.82;;
11839;SDS011;5979;50.800;4.904;2024-03-25T10:05:31;4.97;;;4.32;;
11839;SDS011;5979;50.800;4.904;2024-03-25T10:07:58;5.03;;;4.47;;
11839;SDS011;5979;50.800;4.904;2024-03-25T10:10:23;6.55;;;4.32;;
11839;SDS011;5979;50.800;4.904;2024-03-25T10:12:49;10.57;;;5.22;;
11839;SDS011;5979;50.800;4.904;2024-03-25T10:15:15;7.70;;;4.32;;
11839;SDS011;5979;50.800;4.904;2024-03-25T10:17:41;6.20;;;4.70;;
11839;SDS011;5979;50.800;4.904;2024-03-25T10:20:08;5.45;;;3.53;;
11839;SDS011;5979;50.800;4.904;2024-03-25T10:22:45;7.57;;;5.00;;
11839;SDS011;5979;50.800;4.904;2024-03-25T10:27:54;5.72;;;4.18;;
11839;SDS011;5979;50.800;4.904;2024-03-25T10:30:26;7.18;;;3.90;;
11839;SDS011;5979;50.800;4.904;2024-03-25T10:35:29;6.10;;;4.45;;
11839;SDS011;5979;50.800;4.904;2024-03-25T10:37:58;6.50;;;4.07;;
11839;SDS011;5979;50.800;4.904;2024-03-25T10:40:28;4.50;;;3.60;;
11839;SDS011;5979;50.800;4.904;2024-03-25T10:43:06;3.97;;;3.47;;
11839;SDS011;5979;50.800;4.904;2024-03-25T10:45:46;4.40;;;3.17;;
11839;SDS011;5979;50.800;4.904;2024-03-25T10:48:19;6.53;;;3.50;;
11839;SDS011;5979;50.800;4.904;2024-03-25T10:50:51;6.20;;;3.80;;
11839;SDS011;5979;50.800;4.904;2024-03-25T10:53:20;5.85;;;3.67;;
11839;SDS011;5979;50.800;4.904;2024-03-25T10:55:48;4.25;;;3.60;;
11839;SDS011;5979;50.800;4.904;2024-03-25T10:58:16;4.25;;;3.00;;
11839;SDS011;5979;50.800;4.904;2024-03-25T11:00:42;3.40;;;2.60;;
11839;SDS011;5979;50.800;4.904;2024-03-25T11:03:09;7.28;;;3.00;;
11839;SDS011;5979;50.800;4.904;2024-03-25T11:05:37;6.10;;;3.47;;
11839;SDS011;5979;50.800;4.904;2024-03-25T11:08:13;5.35;;;3.35;;
11839;SDS011;5979;50.800;4.904;2024-03-25T11:10:48;5.53;;;3.22;;
11839;SDS011;5979;50.800;4.904;2024-03-25T11:13:18;3.13;;;2.67;;
11839;SDS011;5979;50.800;4.904;2024-03-25T11:15:45;3.45;;;2.50;;
11839;SDS011;5979;50.800;4.904;2024-03-25T11:18:13;6.63;;;3.45;;
11839;SDS011;5979;50.800;4.904;2024-03-25T11:20:39;2.95;;;2.65;;
11839;SDS011;5979;50.800;4.904;2024-03-25T11:23:12;3.33;;;2.85;;
11839;SDS011;5979;50.800;4.904;2024-03-25T11:25:39;5.05;;;3.25;;
11839;SDS011;5979;50.800;4.904;2024-03-25T11:28:06;5.25;;;3.10;;
11839;SDS011;5979;50.800;4.904;2024-03-25T11:30:33;3.38;;;2.90;;
11839;SDS011;5979;50.800;4.904;2024-03-25T11:33:01;4.90;;;2.65;;
11839;SDS011;5979;50.800;4.904;2024-03-25T11:35:29;4.00;;;2.42;;
11839;SDS011;5979;50.800;4.904;2024-03-25T11:37:55;2.72;;;2.53;;
11839;SDS011;5979;50.800;4.904;2024-03-25T11:40:21;4.30;;;2.40;;
11839;SDS011;5979;50.800;4.904;2024-03-25T11:42:46;3.38;;;2.38;;
11839;SDS011;5979;50.800;4.904;2024-03-25T11:45:19;4.85;;;2.15;;
11839;SDS011;5979;50.800;4.904;2024-03-25T11:47:46;4.10;;;2.30;;
11839;SDS011;5979;50.800;4.904;2024-03-25T11:50:14;4.32;;;2.80;;
11839;SDS011;5979;50.800;4.904;2024-03-25T11:52:41;4.75;;;2.80;;
11839;SDS011;5979;50.800;4.904;2024-03-25T11:55:08;3.00;;;2.80;;
11839;SDS011;5979;50.800;4.904;2024-03-25T11:57:35;4.25;;;2.58;;
11839;SDS011;5979;50.800;4.904;2024-03-25T12:00:02;4.00;;;2.20;;
11839;SDS011;5979;50.800;4.904;2024-03-25T12:02:32;3.33;;;2.70;;
11839;SDS011;5979;50.800;4.904;2024-03-25T12:04:58;3.45;;;2.67;;
11839;SDS011;5979;50.800;4.904;2024-03-25T12:07:23;3.08;;;2.25;;
11839;SDS011;5979;50.800;4.904;2024-03-25T12:09:49;3.67;;;2.33;;
11839;SDS011;5979;50.800;4.904;2024-03-25T12:12:33;2.35;;;2.15;;
11839;SDS011;5979;50.800;4.904;2024-03-25T12:15:04;2.50;;;2.35;;
11839;SDS011;5979;50.800;4.904;2024-03-25T12:17:31;2.47;;;2.28;;
11839;SDS011;5979;50.800;4.904;2024-03-25T12:20:05;3.60;;;2.80;;
11839;SDS011;5979;50.800;4.904;2024-03-25T12:22:38;4.10;;;3.47;;
11839;SDS011;5979;50.800;4.904;2024-03-25T12:25:05;6.22;;;3.15;;
11839;SDS011;5979;50.800;4.904;2024-03-25T12:27:32;4.20;;;3.15;;
11839;SDS011;5979;50.800;4.904;2024-03-25T12:30:08;4.10;;;3.10;;
11839;SDS011;5979;50.800;4.904;2024-03-25T12:35:10;3.22;;;2.88;;
11839;SDS011;5979;50.800;4.904;2024-03-25T12:37:40;2.90;;;2.63;;
11839;SDS011;5979;50.800;4.904;2024-03-25T12:40:06;3.65;;;2.90;;
11839;SDS011;5979;50.800;4.904;2024-03-25T12:42:34;2.95;;;2.63;;
11839;SDS011;5979;50.800;4.904;2024-03-25T12:45:00;3.50;;;2.45;;
11839;SDS011;5979;50.800;4.904;2024-03-25T12:47:27;3.05;;;2.80;;
11839;SDS011;5979;50.800;4.904;2024-03-25T12:49:53;4.97;;;2.50;;
11839;SDS011;5979;50.800;4.904;2024-03-25T12:52:19;4.43;;;2.72;;
11839;SDS011;5979;50.800;4.904;2024-03-25T12:54:44;4.28;;;2.90;;
11839;SDS011;5979;50.800;4.904;2024-03-25T12:57:13;3.17;;;2.67;;
11839;SDS011;5979;50.800;4.904;2024-03-25T12:59:39;3.95;;;3.08;;
11839;SDS011;5979;50.800;4.904;2024-03-25T13:02:04;4.55;;;2.65;;
11839;SDS011;5979;50.800;4.904;2024-03-25T13:04:34;2.38;;;2.17;;
11839;SDS011;5979;50.800;4.904;2024-03-25T13:07:02;2.90;;;2.70;;
11839;SDS011;5979;50.800;4.904;2024-03-25T13:09:28;4.18;;;2.95;;
11839;SDS011;5979;50.800;4.904;2024-03-25T13:11:55;2.72;;;2.53;;
11839;SDS011;5979;50.800;4.904;2024-03-25T13:14:24;4.50;;;2.65;;
11839;SDS011;5979;50.800;4.904;2024-03-25T13:16:50;3.30;;;2.30;;
11839;SDS011;5979;50.800;4.904;2024-03-25T13:19:16;2.47;;;2.28;;
11839;SDS011;5979;50.800;4.904;2024-03-25T13:21:42;3.42;;;2.75;;
11839;SDS011;5979;50.800;4.904;2024-03-25T13:24:08;2.58;;;2.38;;
11839;SDS011;5979;50.800;4.904;2024-03-25T13:26:33;2.40;;;2.20;;
11839;SDS011;5979;50.800;4.904;2024-03-25T13:28:59;3.53;;;2.38;;
11839;SDS011;5979;50.800;4.904;2024-03-25T13:31:25;3.72;;;2.60;;
11839;SDS011;5979;50.800;4.904;2024-03-25T13:33:51;3.05;;;2.40;;
11839;SDS011;5979;50.800;4.904;2024-03-25T13:36:17;3.70;;;2.22;;
11839;SDS011;5979;50.800;4.904;2024-03-25T13:38:44;2.08;;;1.83;;
11839;SDS011;5979;50.800;4.904;2024-03-25T13:41:22;2.85;;;2.38;;
11839;SDS011;5979;50.800;4.904;2024-03-25T13:43:49;2.92;;;2.00;;
11839;SDS011;5979;50.800;4.904;2024-03-25T13:46:14;2.58;;;2.33;;
11839;SDS011;5979;50.800;4.904;2024-03-25T13:48:40;4.70;;;2.92;;
11839;SDS011;5979;50.800;4.904;2024-03-25T13:51:06;3.03;;;2.33;;
11839;SDS011;5979;50.800;4.904;2024-03-25T13:53:31;2.28;;;2.10;;
11839;SDS011;5979;50.800;4.904;2024-03-25T13:55:57;3.38;;;2.70;;
11839;SDS011;5979;50.800;4.904;2024-03-25T13:58:24;3.45;;;2.40;;
11839;SDS011;5979;50.800;4.904;2024-03-25T14:00:50;2.60;;;2.40;;
11839;SDS011;5979;50.800;4.904;2024-03-25T14:03:16;2.30;;;2.15;;
11839;SDS011;5979;50.800;4.904;2024-03-25T14:05:43;3.95;;;2.50;;
11839;SDS011;5979;50.800;4.904;2024-03-25T14:08:09;2.40;;;2.20;;
11839;SDS011;5979;50.800;4.904;2024-03-25T14:10:34;4.20;;;2.00;;
11839;SDS011;5979;50.800;4.904;2024-03-25T14:13:00;2.60;;;2.30;;
11839;SDS011;5979;50.800;4.904;2024-03-25T14:15:26;2.85;;;2.30;;
11839;SDS011;5979;50.800;4.904;2024-03-25T14:17:52;2.08;;;1.95;;
11839;SDS011;5979;50.800;4.904;2024-03-25T14:20:17;2.10;;;2.00;;
11839;SDS011;5979;50.800;4.904;2024-03-25T14:22:43;2.55;;;2.05;;
11839;SDS011;5979;50.800;4.904;2024-03-25T14:35:08;2.47;;;1.90;;
11839;SDS011;5979;50.800;4.904;2024-03-25T14:37:34;2.00;;;1.90;;
11839;SDS011;5979;50.800;4.904;2024-03-25T14:40:00;2.80;;;1.70;;
11839;SDS011;5979;50.800;4.904;2024-03-25T14:42:25;1.90;;;1.70;;
11839;SDS011;5979;50.800;4.904;2024-03-25T14:44:51;2.08;;;1.88;;
11839;SDS011;5979;50.800;4.904;2024-03-25T14:47:17;2.58;;;2.25;;
11839;SDS011;5979;50.800;4.904;2024-03-25T14:49:42;2.15;;;1.85;;
11839;SDS011;5979;50.800;4.904;2024-03-25T14:52:08;1.98;;;1.88;;
11839;SDS011;5979;50.800;4.904;2024-03-25T14:54:34;1.92;;;1.83;;
11839;SDS011;5979;50.800;4.904;2024-03-25T14:57:00;4.60;;;2.00;;
11839;SDS011;5979;50.800;4.904;2024-03-25T14:59:29;2.30;;;2.03;;
11839;SDS011;5979;50.800;4.904;2024-03-25T15:01:59;2.78;;;1.70;;
11839;SDS011;5979;50.800;4.904;2024-03-25T15:04:26;2.28;;;2.05;;
11839;SDS011;5979;50.800;4.904;2024-03-25T15:06:52;2.10;;;2.00;;
11839;SDS011;5979;50.800;4.904;2024-03-25T15:09:18;3.08;;;1.98;;
11839;SDS011;5979;50.800;4.904;2024-03-25T15:11:44;1.80;;;1.70;;